createdAt,value
2022-09-26T00:01:46.275Z,80.94
2022-09-26T00:04:52.491Z,82.05
2022-09-26T00:07:58.245Z,81.49
2022-09-26T00:11:08.928Z,81.59
2022-09-26T00:14:19.851Z,81.29
2022-09-26T00:17:28.416Z,81.29
2022-09-26T00:20:34.480Z,81.33
2022-09-26T00:23:42.287Z,81.49
2022-09-26T00:26:48.308Z,81.49
2022-09-26T00:29:54.359Z,81.27
2022-09-26T00:33:02.887Z,80.87
2022-09-26T00:36:16.529Z,81.77
2022-09-26T00:39:22.505Z,82.17
2022-09-26T00:42:28.487Z,82.00
2022-09-26T00:45:35.257Z,81.81
2022-09-26T00:48:55.475Z,81.35
2022-09-26T00:52:09.770Z,81.68
2022-09-26T00:55:22.397Z,81.08
2022-09-26T00:58:35.622Z,81.34
2022-09-26T01:01:42.125Z,81.50
2022-09-26T01:04:52.165Z,81.24
2022-09-26T01:08:00.722Z,80.76
2022-09-26T01:11:17.347Z,80.58
2022-09-26T01:14:25.305Z,80.32
2022-09-26T01:17:33.101Z,80.21
2022-09-26T01:21:05.217Z,79.75
2022-09-26T01:24:49.412Z,79.24
2022-09-26T01:28:26.869Z,79.35
2022-09-26T01:32:13.639Z,78.44
2022-09-26T01:35:47.161Z,78.05
2022-09-26T01:39:21.595Z,78.79
2022-09-26T01:42:43.000Z,78.21
2022-09-26T01:46:02.881Z,79.90
2022-09-26T01:49:23.807Z,80.30
2022-09-26T01:52:42.772Z,81.22
2022-09-26T01:55:56.471Z,82.62
2022-09-26T01:59:12.980Z,83.08
2022-09-26T02:02:27.666Z,83.23
2022-09-26T02:05:45.936Z,83.34
2022-09-26T02:09:00.810Z,83.83
2022-09-26T02:12:26.771Z,83.48
2022-09-26T02:15:40.724Z,84.24
2022-09-26T02:18:58.484Z,84.46
2022-09-26T02:22:07.349Z,84.17
2022-09-26T02:25:14.524Z,83.64
2022-09-26T02:28:21.021Z,84.24
2022-09-26T02:31:41.967Z,83.89
2022-09-26T02:34:50.998Z,83.95
2022-09-26T02:38:06.590Z,84.86
2022-09-26T02:41:52.374Z,84.26
2022-09-26T02:45:31.491Z,84.72
2022-09-26T02:49:05.448Z,85.01
2022-09-26T02:52:37.253Z,85.30
2022-09-26T02:56:06.979Z,85.73
2022-09-26T02:59:30.327Z,85.45
2022-09-26T03:02:48.851Z,85.41
2022-09-26T03:06:03.971Z,85.21
2022-09-26T03:09:14.962Z,85.85
2022-09-26T03:12:28.167Z,85.33
2022-09-26T03:15:41.047Z,85.90
2022-09-26T03:18:59.500Z,85.73
2022-09-26T03:22:06.048Z,85.58
2022-09-26T03:25:17.759Z,85.94
2022-09-26T03:28:38.235Z,85.51
2022-09-26T03:31:50.662Z,85.42
2022-09-26T03:34:57.793Z,85.23
2022-09-26T03:38:04.978Z,84.72
2022-09-26T03:41:20.850Z,84.83
2022-09-26T03:44:53.533Z,85.44
2022-09-26T03:48:09.219Z,85.09
2022-09-26T03:51:17.526Z,85.18
2022-09-26T03:54:25.004Z,84.51
2022-09-26T03:57:30.950Z,84.62
2022-09-26T04:00:55.807Z,85.13
2022-09-26T04:04:01.616Z,84.65
2022-09-26T04:07:08.406Z,84.76
2022-09-26T04:10:16.399Z,85.39
2022-09-26T04:13:49.933Z,85.89
2022-09-26T04:16:54.050Z,85.67
2022-09-26T04:20:10.022Z,86.01
2022-09-26T04:23:18.809Z,86.23
2022-09-26T04:26:26.755Z,86.26
2022-09-26T04:29:32.870Z,86.46
2022-09-26T04:33:03.780Z,86.22
2022-09-26T04:36:18.567Z,86.68
2022-09-26T04:39:25.734Z,86.54
2022-09-26T04:42:37.169Z,86.35
2022-09-26T04:45:46.117Z,86.09
2022-09-26T04:48:57.547Z,86.25
2022-09-26T04:52:05.134Z,85.77
2022-09-26T04:55:12.372Z,85.73
2022-09-26T04:58:20.227Z,86.14
2022-09-26T05:01:29.247Z,86.03
2022-09-26T05:05:00.595Z,85.96
2022-09-26T05:08:14.836Z,86.29
2022-09-26T05:11:22.261Z,86.36
2022-09-26T05:14:36.029Z,87.08
2022-09-26T05:17:45.786Z,87.19
2022-09-26T05:20:56.120Z,86.93
2022-09-26T05:24:14.337Z,86.40
2022-09-26T05:27:21.506Z,85.95
2022-09-26T05:30:31.580Z,86.96
2022-09-26T05:33:38.952Z,87.22
2022-09-26T05:36:48.095Z,86.97
2022-09-26T05:40:08.556Z,86.98
2022-09-26T05:43:27.714Z,86.83
2022-09-26T05:46:36.422Z,87.13
2022-09-26T05:49:55.402Z,87.44
2022-09-26T05:53:06.490Z,87.26
2022-09-26T05:56:19.784Z,87.07
2022-09-26T06:00:01.104Z,86.96
2022-09-26T06:03:25.548Z,87.13
2022-09-26T06:06:45.133Z,87.29
2022-09-26T06:10:05.586Z,87.14
2022-09-26T06:13:31.463Z,86.64
2022-09-26T06:16:39.359Z,85.99
2022-09-26T06:19:45.907Z,85.99
2022-09-26T06:22:51.918Z,86.77
2022-09-26T06:26:00.530Z,86.55
2022-09-26T06:29:07.817Z,85.83
2022-09-26T06:32:15.575Z,86.26
2022-09-26T06:35:25.388Z,86.82
2022-09-26T06:38:54.702Z,86.86
2022-09-26T06:42:03.257Z,85.98
2022-09-26T06:45:15.126Z,85.54
2022-09-26T06:48:40.160Z,85.07
2022-09-26T06:51:58.068Z,85.03
2022-09-26T06:55:07.063Z,84.27
2022-09-26T06:58:15.690Z,84.21
2022-09-26T07:01:50.840Z,84.75
2022-09-26T07:05:15.724Z,84.07
2022-09-26T07:09:00.395Z,84.90
2022-09-26T07:12:15.092Z,84.46
2022-09-26T07:15:31.061Z,83.87
2022-09-26T07:18:38.250Z,83.46
2022-09-26T07:22:10.221Z,83.52
2022-09-26T07:25:33.622Z,83.65
2022-09-26T07:28:41.218Z,83.34
2022-09-26T07:31:49.928Z,82.78
2022-09-26T07:35:37.274Z,81.94
2022-09-26T07:38:44.062Z,82.46
2022-09-26T07:41:50.502Z,80.65
2022-09-26T07:48:37.330Z,79.46
2022-09-26T07:52:06.214Z,78.07
2022-09-26T07:55:31.242Z,76.71
2022-09-26T07:58:58.078Z,76.45
2022-09-26T08:02:36.558Z,76.98
2022-09-26T08:05:46.926Z,76.39
2022-09-26T08:09:43.256Z,77.63
2022-09-26T08:12:49.479Z,80.09
2022-09-26T08:16:11.884Z,80.59
2022-09-26T08:19:23.318Z,80.12
2022-09-26T08:22:32.147Z,80.48
2022-09-26T08:25:38.777Z,80.35
2022-09-26T08:29:00.239Z,79.18
2022-09-26T08:32:06.745Z,79.23
2022-09-26T08:35:15.192Z,79.39
2022-09-26T08:39:00.152Z,78.49
2022-09-26T08:42:59.575Z,78.86
2022-09-26T08:46:55.395Z,79.77
2022-09-26T08:50:32.763Z,79.25
2022-09-26T08:53:52.131Z,79.75
2022-09-26T08:57:21.385Z,80.51
2022-09-26T09:00:31.968Z,79.36
2022-09-26T09:03:56.658Z,78.79
2022-09-26T09:07:14.821Z,78.95
2022-09-26T09:10:33.255Z,78.90
2022-09-26T09:14:26.632Z,78.77
2022-09-26T09:17:55.327Z,77.51
2022-09-26T09:21:42.510Z,76.79
2022-09-26T09:25:07.502Z,77.43
2022-09-26T09:28:36.523Z,78.14
2022-09-26T09:31:51.074Z,77.55
2022-09-26T09:35:21.744Z,77.42
2022-09-26T09:38:54.083Z,76.94
2022-09-26T09:42:18.297Z,77.77
2022-09-26T09:45:44.527Z,77.58
2022-09-26T09:49:05.440Z,77.63
2022-09-26T09:52:34.418Z,77.40
2022-09-26T09:56:02.869Z,76.82
2022-09-26T09:59:57.730Z,77.77
2022-09-26T10:03:22.801Z,77.15
2022-09-26T10:06:44.151Z,76.16
2022-09-26T10:10:08.436Z,77.82
2022-09-26T10:13:45.227Z,76.85
2022-09-26T10:17:22.731Z,76.95
2022-09-26T10:20:57.767Z,76.46
2022-09-26T10:24:09.398Z,76.07
2022-09-26T10:27:38.364Z,75.22
2022-09-26T10:30:52.687Z,74.93
2022-09-26T10:34:09.213Z,75.38
2022-09-26T10:37:27.610Z,75.84
2022-09-26T10:41:00.681Z,76.28
2022-09-26T10:44:28.244Z,74.47
2022-09-26T10:47:46.406Z,74.94
2022-09-26T10:51:37.560Z,74.44
2022-09-26T10:54:55.519Z,73.36
2022-09-26T10:58:14.015Z,72.40
2022-09-26T11:01:30.274Z,72.31
2022-09-26T11:05:02.445Z,69.23
2022-09-26T11:08:32.160Z,66.48
2022-09-26T11:11:55.577Z,65.95
2022-09-26T11:15:13.251Z,65.73
2022-09-26T11:18:34.743Z,63.58
2022-09-26T11:21:54.413Z,63.78
2022-09-26T11:25:14.971Z,63.91
2022-09-26T11:28:31.832Z,63.11
2022-09-26T11:32:00.131Z,61.54
2022-09-26T11:35:06.761Z,63.68
2022-09-26T11:38:39.284Z,65.86
2022-09-26T11:42:26.159Z,65.01
2022-09-26T11:45:56.421Z,66.05
2022-09-26T11:50:17.448Z,64.62
2022-09-26T11:54:25.015Z,65.30
2022-09-26T11:57:48.847Z,65.71
2022-09-26T12:01:11.593Z,65.99
2022-09-26T12:05:00.002Z,65.75
2022-09-26T12:08:38.888Z,62.89
2022-09-26T12:12:02.195Z,60.21
2022-09-26T12:15:24.870Z,58.11
2022-09-26T12:18:54.884Z,58.57
2022-09-26T12:22:33.428Z,59.35
2022-09-26T12:26:01.653Z,57.70
2022-09-26T12:29:41.144Z,55.17
2022-09-26T12:33:13.361Z,57.35
2022-09-26T12:36:40.634Z,56.49
2022-09-26T12:40:31.712Z,58.30
2022-09-26T12:44:23.786Z,55.16
2022-09-26T12:48:09.528Z,52.56
2022-09-26T12:51:35.248Z,49.76
2022-09-26T12:55:11.160Z,53.50
2022-09-26T12:58:49.061Z,54.43
2022-09-26T13:02:48.847Z,53.94
2022-09-26T13:06:34.855Z,55.24
2022-09-26T13:10:13.724Z,59.36
2022-09-26T13:13:51.632Z,61.68
2022-09-26T13:17:14.089Z,61.71
2022-09-26T13:20:30.793Z,62.96
2022-09-26T13:23:46.025Z,62.69
2022-09-26T13:27:04.947Z,62.43
2022-09-26T13:30:21.342Z,60.96
2022-09-26T13:33:39.748Z,58.84
2022-09-26T13:36:50.028Z,56.52
2022-09-26T13:40:25.274Z,57.13
2022-09-26T13:44:01.752Z,56.50
2022-09-26T13:47:24.971Z,57.66
2022-09-26T13:50:44.285Z,56.16
2022-09-26T13:54:11.851Z,56.16
2022-09-26T13:57:39.137Z,57.60
2022-09-26T14:00:53.644Z,57.46
2022-09-26T14:04:21.793Z,58.73
2022-09-26T14:08:13.711Z,59.58
2022-09-26T14:11:30.929Z,61.21
2022-09-26T14:14:50.184Z,61.73
2022-09-26T14:18:41.200Z,61.34
2022-09-26T14:22:03.397Z,60.44
2022-09-26T14:25:58.002Z,59.86
2022-09-26T14:29:37.953Z,59.97
2022-09-26T14:32:48.707Z,60.59
2022-09-26T14:35:54.379Z,60.74
2022-09-26T14:39:01.679Z,60.92
2022-09-26T14:42:19.792Z,61.00
2022-09-26T14:45:48.889Z,61.77
2022-09-26T14:49:05.541Z,61.82
2022-09-26T14:52:28.977Z,61.88
2022-09-26T14:55:35.110Z,62.04
2022-09-26T14:58:54.152Z,60.54
2022-09-26T15:02:31.722Z,61.18
2022-09-26T15:05:38.430Z,60.47
2022-09-26T15:08:44.566Z,60.51
2022-09-26T15:12:00.136Z,60.35
2022-09-26T15:15:40.732Z,60.71
2022-09-26T15:18:56.811Z,61.24
2022-09-26T15:22:09.230Z,60.85
2022-09-26T15:25:25.510Z,61.17
2022-09-26T15:28:35.020Z,61.09
2022-09-26T15:31:46.442Z,61.51
2022-09-26T15:34:57.019Z,61.30
2022-09-26T15:38:12.742Z,61.60
2022-09-26T15:41:43.122Z,61.60
2022-09-26T15:44:50.146Z,61.88
2022-09-26T15:47:56.624Z,61.81
2022-09-26T15:51:18.093Z,61.66
2022-09-26T15:54:44.825Z,62.01
2022-09-26T15:57:57.643Z,62.56
2022-09-26T16:01:04.539Z,62.43
2022-09-26T16:04:23.295Z,62.51
2022-09-26T16:07:33.767Z,62.65
2022-09-26T16:10:39.965Z,63.43
2022-09-26T16:13:54.415Z,63.85
2022-09-26T16:17:22.653Z,64.63
2022-09-26T16:20:33.479Z,64.84
2022-09-26T16:23:49.559Z,64.96
2022-09-26T16:26:55.161Z,65.65
2022-09-26T16:30:05.356Z,65.65
2022-09-26T16:33:32.579Z,65.78
2022-09-26T16:36:48.215Z,66.01
2022-09-26T16:40:04.537Z,66.65
2022-09-26T16:43:30.167Z,66.74
2022-09-26T16:46:48.707Z,66.95
2022-09-26T16:49:56.293Z,66.91
2022-09-26T16:53:05.067Z,67.91
2022-09-26T16:56:22.934Z,68.08
2022-09-26T16:59:36.299Z,68.66
2022-09-26T17:02:39.608Z,69.78
2022-09-26T17:05:51.891Z,70.06
2022-09-26T17:09:17.490Z,70.34
2022-09-26T17:12:26.044Z,69.71
2022-09-26T17:15:36.165Z,69.15
2022-09-26T17:18:43.615Z,68.94
2022-09-26T17:21:49.599Z,69.52
2022-09-26T17:24:57.137Z,69.37
2022-09-26T17:28:05.810Z,70.27
2022-09-26T17:31:20.194Z,70.36
2022-09-26T17:34:29.899Z,70.96
2022-09-26T17:37:35.828Z,71.09
2022-09-26T17:40:48.494Z,71.72
2022-09-26T17:44:01.253Z,70.85
2022-09-26T17:47:09.377Z,71.38
2022-09-26T17:50:26.645Z,72.64
2022-09-26T17:53:49.757Z,73.00
2022-09-26T17:56:59.137Z,72.73
2022-09-26T18:00:23.043Z,72.72
2022-09-26T18:03:35.846Z,72.03
2022-09-26T18:06:43.240Z,71.59
2022-09-26T18:09:49.517Z,71.47
2022-09-26T18:13:25.279Z,72.06
2022-09-26T18:16:33.717Z,71.78
2022-09-26T18:19:43.063Z,72.39
2022-09-26T18:22:58.791Z,72.60
2022-09-26T18:26:06.420Z,72.83
2022-09-26T18:29:21.952Z,72.97
2022-09-26T18:32:40.971Z,72.03
2022-09-26T18:35:49.612Z,72.78
2022-09-26T18:38:56.360Z,72.79
2022-09-26T18:42:12.247Z,73.63
2022-09-26T18:45:33.241Z,73.16
2022-09-26T18:48:45.261Z,73.64
2022-09-26T18:51:51.106Z,73.73
2022-09-26T18:55:08.987Z,73.43
2022-09-26T18:58:34.786Z,73.55
2022-09-26T19:01:48.225Z,73.35
2022-09-26T19:05:03.695Z,73.78
2022-09-26T19:08:09.657Z,75.33
2022-09-26T19:11:20.984Z,75.38
2022-09-26T19:14:30.531Z,76.59
2022-09-26T19:17:36.155Z,77.36
2022-09-26T19:20:44.732Z,76.12
2022-09-26T19:23:57.663Z,75.58
2022-09-26T19:27:09.265Z,75.92
2022-09-26T19:30:24.865Z,74.89
2022-09-26T19:33:34.231Z,74.62
2022-09-26T19:36:45.005Z,74.29
2022-09-26T19:39:53.909Z,76.02
2022-09-26T19:43:02.689Z,76.13
2022-09-26T19:46:27.694Z,76.75
2022-09-26T19:49:35.025Z,77.42
2022-09-26T19:52:43.251Z,77.64
2022-09-26T19:55:51.410Z,78.00
2022-09-26T19:58:57.216Z,77.49
2022-09-26T20:02:04.570Z,77.52
2022-09-26T20:05:22.653Z,77.14
2022-09-26T20:08:31.369Z,76.65
2022-09-26T20:11:39.903Z,77.59
2022-09-26T20:14:46.364Z,78.12
2022-09-26T20:17:55.337Z,77.78
2022-09-26T20:21:03.502Z,77.71
2022-09-26T20:24:22.109Z,77.94
2022-09-26T20:27:32.013Z,78.34
2022-09-26T20:30:50.697Z,78.79
2022-09-26T20:33:59.433Z,79.04
2022-09-26T20:37:09.525Z,78.47
2022-09-26T20:40:25.629Z,78.26
2022-09-26T20:43:38.899Z,78.81
2022-09-26T20:47:06.619Z,78.73
2022-09-26T20:50:33.838Z,78.27
2022-09-26T20:53:40.639Z,78.80
2022-09-26T20:56:54.014Z,79.65
2022-09-26T21:00:00.554Z,79.57
2022-09-26T21:03:15.998Z,80.17
2022-09-26T21:06:31.096Z,80.27
2022-09-26T21:09:37.145Z,80.95
2022-09-26T21:12:45.362Z,80.67
2022-09-26T21:15:51.350Z,80.62
2022-09-26T21:18:57.296Z,80.72
2022-09-26T21:22:03.125Z,80.37
2022-09-26T21:25:29.280Z,80.43
2022-09-26T21:28:37.980Z,80.36
2022-09-26T21:31:49.322Z,81.21
2022-09-26T21:35:05.710Z,81.19
2022-09-26T21:38:11.964Z,81.31
2022-09-26T21:41:18.120Z,80.53
2022-09-26T21:44:35.734Z,81.22
2022-09-26T21:47:41.562Z,79.97
2022-09-26T21:50:57.936Z,80.44
2022-09-26T21:54:15.317Z,81.60
2022-09-26T21:57:30.015Z,81.46
2022-09-26T22:00:38.224Z,80.50
2022-09-26T22:03:43.962Z,81.29
2022-09-26T22:06:49.528Z,81.21
2022-09-26T22:09:55.164Z,81.79
2022-09-26T22:13:01.313Z,82.67
2022-09-26T22:16:15.505Z,82.79
2022-09-26T22:19:21.038Z,82.68
2022-09-26T22:22:26.642Z,83.00
2022-09-26T22:25:32.480Z,82.93
2022-09-26T22:28:38.342Z,83.01
2022-09-26T22:31:47.948Z,83.17
2022-09-26T22:34:56.176Z,83.07
2022-09-26T22:38:01.794Z,83.35
2022-09-26T22:41:10.016Z,83.37
2022-09-26T22:44:15.777Z,84.01
2022-09-26T22:47:23.953Z,83.59
2022-09-26T22:50:29.561Z,83.53
2022-09-26T22:53:38.881Z,84.01
2022-09-26T22:56:44.544Z,84.51
2022-09-26T22:59:50.143Z,84.35
2022-09-26T23:02:58.320Z,85.08
2022-09-26T23:06:06.312Z,84.58
2022-09-26T23:09:12.081Z,84.17
2022-09-26T23:12:19.254Z,84.26
2022-09-26T23:15:28.660Z,83.65
2022-09-26T23:18:38.231Z,83.74
2022-09-26T23:21:43.811Z,83.30
2022-09-26T23:24:49.424Z,82.86
2022-09-26T23:27:55.043Z,82.28
2022-09-26T23:31:09.322Z,82.35
2022-09-26T23:34:17.748Z,82.52
2022-09-26T23:37:23.333Z,81.98
2022-09-26T23:40:29.722Z,82.53
2022-09-26T23:43:35.728Z,83.11
2022-09-26T23:46:41.295Z,83.63
2022-09-26T23:49:49.590Z,84.67
2022-09-26T23:52:55.100Z,84.75
2022-09-26T23:56:07.333Z,84.50
2022-09-26T23:59:12.851Z,84.66
